createdAt,value
2022-11-13T00:01:23.921Z,7.40
2022-11-13T00:04:26.500Z,6.95
2022-11-13T00:07:30.303Z,7.18
2022-11-13T00:10:32.994Z,6.88
2022-11-13T00:13:36.438Z,7.85
2022-11-13T00:16:38.960Z,6.55
2022-11-13T00:19:41.602Z,5.90
2022-11-13T00:22:45.798Z,6.93
2022-11-13T00:25:48.289Z,7.07
2022-11-13T00:28:53.839Z,6.53
2022-11-13T00:31:56.396Z,6.40
2022-11-13T00:34:58.934Z,6.13
2022-11-13T00:38:02.927Z,5.72
2022-11-13T00:41:05.485Z,6.85
2022-11-13T00:44:08.114Z,6.60
2022-11-13T00:47:10.577Z,6.72
2022-11-13T00:50:13.079Z,6.75
2022-11-13T00:53:18.316Z,7.07
2022-11-13T00:56:20.938Z,6.68
2022-11-13T00:59:23.390Z,6.20
2022-11-13T01:02:25.861Z,6.05
2022-11-13T01:05:28.973Z,6.40
2022-11-13T01:08:32.824Z,6.15
2022-11-13T01:11:35.294Z,6.75
2022-11-13T01:14:37.744Z,7.18
2022-11-13T01:17:40.246Z,6.95
2022-11-13T01:20:42.804Z,6.13
2022-11-13T01:23:46.825Z,6.32
2022-11-13T01:26:49.311Z,6.13
2022-11-13T01:29:51.953Z,7.65
2022-11-13T01:32:54.398Z,9.20
2022-11-13T01:36:01.486Z,8.63
2022-11-13T01:39:05.692Z,11.05
2022-11-13T01:42:08.161Z,10.45
2022-11-13T01:45:48.494Z,10.55
2022-11-13T01:48:53.612Z,9.80
2022-11-13T01:51:58.904Z,8.27
2022-11-13T01:55:05.282Z,8.95
2022-11-13T01:58:11.193Z,9.40
2022-11-13T02:01:13.759Z,9.73
2022-11-13T02:04:16.344Z,9.43
2022-11-13T02:07:21.566Z,9.80
2022-11-13T02:10:25.754Z,9.57
2022-11-13T02:13:28.239Z,8.55
2022-11-13T02:16:33.116Z,7.43
2022-11-13T02:19:39.299Z,7.15
2022-11-13T02:22:47.797Z,8.07
2022-11-13T02:25:53.971Z,8.15
2022-11-13T02:28:56.426Z,8.63
2022-11-13T02:31:58.903Z,8.63
2022-11-13T02:35:01.390Z,9.27
2022-11-13T02:38:06.173Z,9.90
2022-11-13T02:41:09.964Z,10.82
2022-11-13T02:44:12.466Z,10.73
2022-11-13T02:47:14.913Z,11.10
2022-11-13T02:50:18.581Z,11.07
2022-11-13T02:53:21.023Z,10.45
2022-11-13T02:56:24.837Z,10.50
2022-11-13T02:59:27.280Z,9.65
2022-11-13T03:02:29.719Z,9.55
2022-11-13T03:05:32.168Z,10.80
2022-11-13T03:08:36.035Z,8.90
2022-11-13T03:11:40.258Z,7.78
2022-11-13T03:14:42.741Z,8.00
2022-11-13T03:17:45.194Z,7.18
2022-11-13T03:20:53.578Z,7.38
2022-11-13T03:23:56.058Z,10.85
2022-11-13T03:26:59.825Z,11.32
2022-11-13T03:30:02.271Z,11.82
2022-11-13T03:33:04.805Z,11.20
2022-11-13T03:36:07.747Z,13.50
2022-11-13T03:39:10.359Z,12.23
2022-11-13T03:42:14.128Z,13.20
2022-11-13T03:45:16.660Z,12.95
2022-11-13T03:48:19.254Z,14.30
2022-11-13T03:51:21.729Z,13.52
2022-11-13T03:54:24.265Z,13.23
2022-11-13T03:57:28.015Z,13.00
2022-11-13T04:00:31.141Z,14.10
2022-11-13T04:03:33.576Z,14.65
2022-11-13T04:06:36.117Z,14.60
2022-11-13T04:09:38.669Z,14.65
2022-11-13T04:12:42.460Z,16.10
2022-11-13T04:15:44.904Z,15.80
2022-11-13T04:18:47.398Z,16.17
2022-11-13T04:21:49.824Z,15.55
2022-11-13T04:24:52.317Z,16.10
2022-11-13T04:27:56.218Z,15.43
2022-11-13T04:30:58.744Z,14.82
2022-11-13T04:34:01.214Z,14.60
2022-11-13T04:37:03.675Z,14.10
2022-11-13T04:40:07.276Z,15.55
2022-11-13T04:43:10.123Z,15.02
2022-11-13T04:46:12.576Z,17.13
2022-11-13T04:49:15.045Z,16.15
2022-11-13T04:52:17.665Z,15.38
2022-11-13T04:55:20.325Z,13.77
2022-11-13T04:58:24.110Z,14.45
2022-11-13T05:01:26.773Z,12.98
2022-11-13T05:04:29.291Z,13.43
2022-11-13T05:07:31.742Z,13.13
2022-11-13T05:10:34.195Z,12.93
2022-11-13T05:13:38.182Z,12.65
2022-11-13T05:16:40.688Z,13.43
2022-11-13T05:19:43.192Z,12.65
2022-11-13T05:22:45.644Z,12.02
2022-11-13T05:25:48.107Z,12.63
2022-11-13T05:28:51.894Z,13.05
2022-11-13T05:31:54.359Z,12.07
2022-11-13T05:34:56.811Z,12.45
2022-11-13T05:38:01.678Z,12.77
2022-11-13T05:41:05.523Z,12.80
2022-11-13T05:44:09.358Z,10.85
2022-11-13T05:47:11.811Z,10.77
2022-11-13T05:50:14.257Z,10.38
2022-11-13T05:53:16.707Z,12.18
2022-11-13T05:56:21.228Z,11.88
2022-11-13T05:59:25.334Z,10.75
2022-11-13T06:02:27.748Z,11.32
2022-11-13T06:05:30.330Z,11.75
2022-11-13T06:08:32.813Z,10.10
2022-11-13T06:11:35.306Z,11.32
2022-11-13T06:14:39.298Z,10.52
2022-11-13T06:17:41.736Z,10.35
2022-11-13T06:20:44.162Z,9.15
2022-11-13T06:23:47.002Z,10.45
2022-11-13T06:26:49.485Z,9.38
2022-11-13T06:29:53.267Z,9.00
2022-11-13T06:32:55.763Z,8.85
2022-11-13T06:35:58.326Z,9.55
2022-11-13T06:39:01.271Z,7.63
2022-11-13T06:42:03.792Z,8.15
2022-11-13T06:45:08.933Z,8.68
2022-11-13T06:48:11.391Z,9.05
2022-11-13T06:51:16.454Z,8.18
2022-11-13T06:54:18.970Z,8.25
2022-11-13T06:57:21.506Z,7.45
2022-11-13T07:00:25.372Z,7.35
2022-11-13T07:03:28.158Z,6.18
2022-11-13T07:06:30.603Z,6.45
2022-11-13T07:09:33.085Z,7.18
2022-11-13T07:12:35.613Z,7.18
2022-11-13T07:15:40.719Z,7.13
2022-11-13T07:18:43.234Z,7.18
2022-11-13T07:21:45.673Z,6.93
2022-11-13T07:24:48.118Z,6.50
2022-11-13T07:27:50.654Z,6.53
2022-11-13T07:30:54.450Z,6.10
2022-11-13T07:33:57.017Z,5.60
2022-11-13T07:36:59.457Z,5.00
2022-11-13T07:40:02.101Z,3.67
2022-11-13T07:43:04.832Z,4.05
2022-11-13T07:46:08.585Z,3.60
2022-11-13T07:49:11.048Z,3.72
2022-11-13T07:52:13.522Z,4.45
2022-11-13T07:55:15.971Z,4.30
2022-11-13T07:58:18.464Z,4.32
2022-11-13T08:01:22.328Z,4.50
2022-11-13T08:04:24.868Z,4.18
2022-11-13T08:07:27.363Z,4.45
2022-11-13T08:10:29.910Z,4.03
2022-11-13T08:13:32.378Z,3.72
2022-11-13T08:16:36.232Z,4.72
2022-11-13T08:19:38.672Z,5.22
2022-11-13T08:22:41.142Z,5.80
2022-11-13T08:25:43.763Z,7.35
2022-11-13T08:28:46.527Z,6.55
2022-11-13T08:31:50.336Z,3.40
2022-11-13T08:34:52.842Z,2.90
2022-11-13T08:37:55.433Z,10.05
2022-11-13T08:41:01.259Z,4.35
2022-11-13T08:44:06.921Z,4.03
2022-11-13T08:47:10.858Z,3.95
2022-11-13T08:50:13.296Z,6.03
2022-11-13T08:53:15.766Z,7.13
2022-11-13T08:56:18.375Z,6.75
2022-11-13T08:59:23.504Z,5.95
2022-11-13T09:02:27.399Z,5.38
2022-11-13T09:05:29.871Z,6.15
2022-11-13T09:08:32.511Z,6.45
2022-11-13T09:11:35.159Z,5.18
2022-11-13T09:14:37.919Z,5.68
2022-11-13T09:17:41.723Z,6.28
2022-11-13T09:20:44.180Z,6.45
2022-11-13T09:23:46.664Z,7.97
2022-11-13T09:26:49.119Z,8.10
2022-11-13T09:29:55.388Z,8.60
2022-11-13T09:33:01.221Z,9.77
2022-11-13T09:36:04.406Z,9.40
2022-11-13T09:39:07.059Z,8.02
2022-11-13T09:42:14.940Z,7.70
2022-11-13T09:45:18.362Z,6.82
2022-11-13T10:16:30.196Z,10.75
2022-11-13T10:19:38.997Z,12.88
2022-11-13T10:22:45.630Z,12.15
2022-11-13T10:25:51.205Z,10.02
2022-11-13T10:29:02.196Z,11.52
2022-11-13T10:32:21.922Z,10.80
2022-11-13T10:35:38.157Z,10.50
2022-11-13T10:55:27.287Z,12.85
2022-11-13T10:58:30.187Z,12.43
2022-11-13T11:01:32.801Z,13.90
2022-11-13T11:04:35.274Z,12.88
2022-11-13T11:07:41.632Z,13.70
2022-11-13T14:01:59.018Z,26.00
2022-11-13T14:05:01.601Z,27.20
2022-11-13T14:08:07.509Z,26.35
2022-11-13T14:11:18.688Z,25.00
2022-11-13T14:14:23.059Z,25.77
2022-11-13T14:17:28.657Z,24.67
2022-11-13T14:20:35.260Z,24.98
2022-11-13T14:23:42.292Z,24.95
2022-11-13T14:26:45.273Z,23.08
